Didcot, United Kingdom
Current Conditions -  °F | °C
As of 2:50 AM on Saturday 20 Dec 2014 (Local Time) from EGUB Reporting Station
Broken Clouds Broken Clouds  
Wind Chill: 37°   Ceiling: 3700
Heat Index: 43°   Visibility: 6mi
Dew Point: 36°   Wind: 10mph
Humidity: 76%   Direction: 230°SW
Pressure: 30.21"   Gusts: NA
Location:  51.61°N, 1.24°W
Report Text: EGUB 200250Z AUTO 23009KT 9999 // BKN037/// 06/02 Q1023
Loading
Personal Weather Stations






























Interactive Weather Map New forecast layout! Learn more

10-Day Weather Forecast

Advertisements
Track Severe Weather on mobile